Crevillente, Spain
Current Conditions -  °F | °C
As of 7:00 AM on Tuesday 21 Oct 2014 (Local Time) from LEAL Reporting Station
Clear Clear  
Wind Chill: 16°   Ceiling: Unl
Heat Index: 16°   Visibility: 6mi
Dew Point: 10°   Wind: 2mph
Humidity: 68%   Direction: NA
Pressure: 30.09"   Gusts: NA
Location:  38.25°N, 0.81°W
Report Text: LEAL 210500Z VRB02KT CAVOK 16/10 Q1019 NOSIG
Loading
Personal Weather Stations






























Interactive Weather Map
Tropical Storm Tracking
New forecast layout! Learn more

10-Day Weather Forecast

Advertisements
Track Severe Weather on mobile